Wetterdaten: Woche 03.07.23 - 09.07.23 (KW27)
Datum Zeit Temp. A. Feuchte A. Luftdruck Regen Wind Richtung Taupunkt Windchill
03.07.2023 00:00 15,3 C 69 % 1016 hPa 0,0 l/m 0,0 km/h (0 Bft) N-NW 9,7 C 15,3 C
03.07.2023 01:00 15,3 C 71 % 1016 hPa 0,0 l/m 0,0 km/h (0 Bft) N-NW 10,1 C 15,3 C
03.07.2023 02:00 15,3 C 72 % 1015 hPa 0,0 l/m 0,0 km/h (0 Bft) N-NW 10,3 C 15,3 C
03.07.2023 03:00 15,3 C 72 % 1015 hPa 0,0 l/m 0,0 km/h (0 Bft) S 10,2 C 15,3 C
03.07.2023 04:00 14,7 C 72 % 1015 hPa 0,0 l/m 0,0 km/h (0 Bft) S 9,7 C 14,7 C
03.07.2023 05:00 13,5 C 74 % 1015 hPa 0,0 l/m 0,0 km/h (0 Bft) S 9,0 C 13,5 C
03.07.2023 06:00 13,9 C 75 % 1016 hPa 0,0 l/m 0,0 km/h (0 Bft) SW 9,5 C 13,9 C
03.07.2023 07:00 15,3 C 73 % 1016 hPa 0,0 l/m 0,0 km/h (0 Bft) S-SW 10,5 C 15,3 C
03.07.2023 08:00 16,9 C 68 % 1016 hPa 0,0 l/m 2,5 km/h (1 Bft) SW 11,0 C 16,7 C
03.07.2023 09:00 18,5 C 62 % 1016 hPa 0,0 l/m 0,1 km/h (0 Bft) W 10,9 C 18,5 C
03.07.2023 10:00 18,8 C 60 % 1016 hPa 0,0 l/m 0,8 km/h (0 Bft) W-NW 10,9 C 18,8 C
03.07.2023 11:00 19,8 C 58 % 1016 hPa 0,0 l/m 0,0 km/h (0 Bft) W 11,2 C 19,8 C
03.07.2023 12:00 20,4 C 53 % 1016 hPa 0,0 l/m 1,4 km/h (1 Bft) W 10,6 C 20,3 C
03.07.2023 13:00 20,9 C 51 % 1016 hPa 0,0 l/m 0,0 km/h (0 Bft) SW 10,3 C 20,9 C
03.07.2023 14:00 21,3 C 48 % 1016 hPa 0,0 l/m 0,0 km/h (0 Bft) W 9,8 C 21,3 C
03.07.2023 15:00 21,8 C 46 % 1017 hPa 0,0 l/m 0,0 km/h (0 Bft) W 9,7 C 21,8 C
03.07.2023 16:00 22,5 C 44 % 1017 hPa 0,0 l/m 0,6 km/h (0 Bft) W-SW 9,6 C 22,5 C
03.07.2023 17:00 22,4 C 45 % 1017 hPa 0,0 l/m 0,0 km/h (0 Bft) W-SW 9,7 C 22,4 C
03.07.2023 18:00 21,4 C 46 % 1017 hPa 0,0 l/m 0,0 km/h (0 Bft) W 9,4 C 21,4 C
03.07.2023 19:00 21,3 C 48 % 1016 hPa 0,0 l/m 0,0 km/h (0 Bft) SW 9,9 C 21,3 C
03.07.2023 20:00 20,3 C 52 % 1016 hPa 0,0 l/m 0,0 km/h (0 Bft) NW 10,0 C 20,3 C
03.07.2023 21:00 18,7 C 55 % 1016 hPa 0,0 l/m 0,0 km/h (0 Bft) NW 9,5 C 18,7 C
03.07.2023 22:00 17,6 C 58 % 1017 hPa 0,0 l/m 0,0 km/h (0 Bft) NW 9,1 C 17,6 C
03.07.2023 23:00 16,1 C 61 % 1017 hPa 0,0 l/m 0,0 km/h (0 Bft) NW 8,5 C 16,1 C
04.07.2023 00:00 15,3 C 63 % 1017 hPa 0,0 l/m 0,0 km/h (0 Bft) W-NW 8,2 C 15,3 C
04.07.2023 01:00 14,4 C 66 % 1017 hPa 0,0 l/m 0,0 km/h (0 Bft) W-NW 8,0 C 14,4 C
04.07.2023 02:00 13,6 C 70 % 1017 hPa 0,0 l/m 0,0 km/h (0 Bft) W-SW 8,2 C 13,6 C
04.07.2023 03:00 13,2 C 74 % 1017 hPa 0,0 l/m 0,0 km/h (0 Bft) W-SW 8,6 C 13,2 C
04.07.2023 04:00 13,4 C 77 % 1017 hPa 0,0 l/m 0,0 km/h (0 Bft) S-SW 9,5 C 13,4 C
04.07.2023 05:00 13,7 C 78 % 1017 hPa 0,0 l/m 0,0 km/h (0 Bft) S 9,8 C 13,7 C
04.07.2023 06:00 13,8 C 78 % 1018 hPa 0,0 l/m 0,0 km/h (0 Bft) SO 10,1 C 13,8 C
04.07.2023 07:00 15,2 C 78 % 1018 hPa 0,0 l/m 0,0 km/h (0 Bft) SW 11,4 C 15,2 C
04.07.2023 08:00 17,1 C 74 % 1019 hPa 0,0 l/m 0,0 km/h (0 Bft) W-SW 12,3 C 17,1 C
04.07.2023 09:00 18,6 C 66 % 1019 hPa 0,0 l/m 0,1 km/h (0 Bft) W 12,0 C 18,6 C
04.07.2023 10:00 19,8 C 58 % 1019 hPa 0,0 l/m 0,0 km/h (0 Bft) W 11,4 C 19,8 C
04.07.2023 11:00 21,7 C 54 % 1019 hPa 0,0 l/m 1,9 km/h (1 Bft) W-SW 11,8 C 21,5 C
04.07.2023 12:00 23,4 C 47 % 1019 hPa 0,0 l/m 1,4 km/h (1 Bft) SW 11,6 C 23,4 C
04.07.2023 13:00 24,4 C 43 % 1019 hPa 0,0 l/m 0,2 km/h (0 Bft) W 11,1 C 24,4 C
04.07.2023 14:00 24,9 C 40 % 1018 hPa 0,0 l/m 0,5 km/h (0 Bft) W-SW 10,4 C 24,9 C
04.07.2023 15:00 25,6 C 39 % 1018 hPa 0,0 l/m 0,0 km/h (0 Bft) W-SW 10,5 C 25,6 C
04.07.2023 16:00 26,8 C 37 % 1018 hPa 0,0 l/m 0,0 km/h (0 Bft) W 10,8 C 26,8 C
04.07.2023 17:00 25,8 C 37 % 1018 hPa 0,0 l/m 0,0 km/h (0 Bft) NW 10,0 C 25,8 C
04.07.2023 18:00 24,4 C 39 % 1018 hPa 0,0 l/m 0,0 km/h (0 Bft) NW 9,7 C 24,4 C
04.07.2023 19:00 23,4 C 41 % 1018 hPa 0,0 l/m 0,0 km/h (0 Bft) N-NW 9,3 C 23,4 C
04.07.2023 20:00 21,6 C 44 % 1018 hPa 0,0 l/m 0,0 km/h (0 Bft) N-NW 9,0 C 21,6 C
04.07.2023 21:00 19,5 C 49 % 1019 hPa 0,0 l/m 0,0 km/h (0 Bft) O-NO 8,3 C 19,5 C
04.07.2023 22:00 17,5 C 53 % 1019 hPa 0,0 l/m 0,0 km/h (0 Bft) O-NO 7,7 C 17,5 C
04.07.2023 23:00 16,3 C 56 % 1019 hPa 0,0 l/m 0,0 km/h (0 Bft) O 7,6 C 16,3 C
05.07.2023 00:00 15,6 C 59 % 1019 hPa 0,0 l/m 0,0 km/h (0 Bft) O-NO 7,7 C 15,6 C
05.07.2023 01:00 15,5 C 61 % 1018 hPa 0,0 l/m 0,0 km/h (0 Bft) O-SO 7,9 C 15,5 C
05.07.2023 02:00 15,3 C 63 % 1017 hPa 0,0 l/m 0,0 km/h (0 Bft) O-NO 8,2 C 15,3 C
05.07.2023 03:00 15,7 C 62 % 1016 hPa 0,0 l/m 0,0 km/h (0 Bft) O 8,5 C 15,7 C
05.07.2023 04:00 16,1 C 61 % 1016 hPa 0,0 l/m 0,0 km/h (0 Bft) O-SO 8,6 C 16,1 C
05.07.2023 05:00 15,2 C 63 % 1015 hPa 0,0 l/m 0,0 km/h (0 Bft) SW 8,2 C 15,2 C
05.07.2023 06:00 15,6 C 64 % 1015 hPa 0,0 l/m 0,0 km/h (0 Bft) S-SW 8,8 C 15,6 C
05.07.2023 07:00 16,2 C 64 % 1015 hPa 0,0 l/m 0,0 km/h (0 Bft) S-SW 9,3 C 16,2 C
05.07.2023 08:00 16,5 C 71 % 1015 hPa 0,0 l/m 6,9 km/h (2 Bft) SO 11,2 C 15,3 C
05.07.2023 09:00 18,3 C 70 % 1015 hPa 0,0 l/m 2,4 km/h (1 Bft) S 12,8 C 18,3 C
05.07.2023 10:00 20,6 C 66 % 1015 hPa 0,0 l/m 0,1 km/h (0 Bft) SW 14,1 C 20,6 C
05.07.2023 11:00 21,2 C 66 % 1016 hPa 0,0 l/m 0,1 km/h (0 Bft) SW 14,5 C 21,2 C
05.07.2023 12:00 21,5 C 64 % 1016 hPa 0,0 l/m 2,8 km/h (1 Bft) SO 14,3 C 21,2 C
05.07.2023 13:00 22,5 C 56 % 1016 hPa 0,0 l/m 5,0 km/h (1 Bft) O-SO 13,3 C 22,0 C
05.07.2023 14:00 23,3 C 49 % 1016 hPa 0,0 l/m 2,4 km/h (1 Bft) SW 11,9 C 23,1 C
05.07.2023 15:00 24,2 C 44 % 1017 hPa 0,0 l/m 1,4 km/h (1 Bft) W-NW 11,1 C 24,2 C
05.07.2023 16:00 25,0 C 41 % 1017 hPa 0,0 l/m 0,0 km/h (0 Bft) W-SW 10,7 C 25,0 C
05.07.2023 17:00 24,7 C 39 % 1018 hPa 0,0 l/m 0,3 km/h (0 Bft) W 9,9 C 24,7 C
05.07.2023 18:00 22,7 C 40 % 1018 hPa 0,0 l/m 0,0 km/h (0 Bft) W 8,5 C 22,7 C
05.07.2023 19:00 21,3 C 43 % 1019 hPa 0,0 l/m 0,0 km/h (0 Bft) SW 8,1 C 21,3 C
05.07.2023 20:00 19,8 C 45 % 1019 hPa 0,0 l/m 0,0 km/h (0 Bft) W 7,6 C 19,8 C
05.07.2023 21:00 18,7 C 48 % 1020 hPa 0,0 l/m 0,0 km/h (0 Bft) W-SW 7,3 C 18,7 C
05.07.2023 22:00 17,2 C 50 % 1020 hPa 0,0 l/m 0,0 km/h (0 Bft) W-SW 6,7 C 17,2 C
05.07.2023 23:00 16,2 C 54 % 1021 hPa 0,0 l/m 0,0 km/h (0 Bft) W-SW 7,0 C 16,2 C
06.07.2023 00:00 15,8 C 57 % 1021 hPa 0,0 l/m 0,0 km/h (0 Bft) W-SW 7,3 C 15,8 C
06.07.2023 01:00 14,4 C 60 % 1021 hPa 0,0 l/m 0,0 km/h (0 Bft) W-SW 6,8 C 14,4 C
06.07.2023 02:00 13,5 C 62 % 1022 hPa 0,0 l/m 0,0 km/h (0 Bft) W-SW 6,5 C 13,5 C
06.07.2023 03:00 12,6 C 65 % 1022 hPa 0,0 l/m 0,0 km/h (0 Bft) O-SO 6,1 C 12,6 C
06.07.2023 04:00 11,8 C 67 % 1022 hPa 0,0 l/m 0,0 km/h (0 Bft) O-SO 6,0 C 11,8 C
06.07.2023 05:00 11,7 C 69 % 1022 hPa 0,0 l/m 0,0 km/h (0 Bft) O-SO 6,2 C 11,7 C
06.07.2023 06:00 12,2 C 70 % 1022 hPa 0,0 l/m 0,0 km/h (0 Bft) W 6,8 C 12,2 C
06.07.2023 07:00 13,4 C 70 % 1023 hPa 0,0 l/m 0,0 km/h (0 Bft) S-SW 8,0 C 13,4 C
06.07.2023 08:00 15,8 C 68 % 1023 hPa 0,0 l/m 0,0 km/h (0 Bft) W-SW 9,8 C 15,8 C
06.07.2023 09:00 17,9 C 61 % 1023 hPa 0,0 l/m 0,0 km/h (0 Bft) S-SW 10,4 C 17,9 C
06.07.2023 10:00 19,8 C 56 % 1024 hPa 0,0 l/m 0,6 km/h (0 Bft) W 10,7 C 19,8 C
06.07.2023 11:00 20,9 C 52 % 1023 hPa 0,0 l/m 0,0 km/h (0 Bft) N 10,6 C 20,9 C
06.07.2023 12:00 21,7 C 49 % 1023 hPa 0,0 l/m 0,0 km/h (0 Bft) N-NW 10,4 C 21,7 C
06.07.2023 13:00 22,9 C 47 % 1023 hPa 0,0 l/m 0,0 km/h (0 Bft) S-SO 10,9 C 22,9 C
06.07.2023 14:00 24,2 C 44 % 1023 hPa 0,0 l/m 0,0 km/h (0 Bft) N-NO 11,1 C 24,2 C
06.07.2023 15:00 25,2 C 42 % 1023 hPa 0,0 l/m 0,0 km/h (0 Bft) NW 11,2 C 25,2 C
06.07.2023 16:00 25,3 C 40 % 1023 hPa 0,0 l/m 0,8 km/h (0 Bft) N-NW 10,7 C 25,3 C
06.07.2023 17:00 24,3 C 40 % 1023 hPa 0,0 l/m 0,0 km/h (0 Bft) N 9,8 C 24,3 C
06.07.2023 18:00 22,9 C 43 % 1023 hPa 0,0 l/m 0,0 km/h (0 Bft) N 9,4 C 22,9 C
06.07.2023 19:00 22,1 C 45 % 1023 hPa 0,0 l/m 0,0 km/h (0 Bft) N 9,5 C 22,1 C
06.07.2023 20:00 21,3 C 47 % 1023 hPa 0,0 l/m 1,1 km/h (1 Bft) N 9,5 C 21,3 C
06.07.2023 21:00 19,6 C 50 % 1024 hPa 0,0 l/m 0,0 km/h (0 Bft) N 8,7 C 19,6 C
06.07.2023 22:00 18,3 C 53 % 1024 hPa 0,0 l/m 0,0 km/h (0 Bft) N 8,4 C 18,3 C
06.07.2023 23:00 17,0 C 56 % 1025 hPa 0,0 l/m 0,0 km/h (0 Bft) O-NO 8,0 C 17,0 C
07.07.2023 00:00 15,0 C 60 % 1025 hPa 0,0 l/m 0,0 km/h (0 Bft) O 7,2 C 15,0 C
07.07.2023 01:00 13,5 C 63 % 1026 hPa 0,0 l/m 0,0 km/h (0 Bft) O 6,7 C 13,5 C
07.07.2023 02:00 12,6 C 67 % 1026 hPa 0,0 l/m 0,0 km/h (0 Bft) O 6,6 C 12,6 C
07.07.2023 03:00 12,2 C 70 % 1026 hPa 0,0 l/m 0,0 km/h (0 Bft) O 6,8 C 12,2 C
07.07.2023 04:00 11,6 C 71 % 1026 hPa 0,0 l/m 0,0 km/h (0 Bft) O 6,5 C 11,6 C
07.07.2023 05:00 11,1 C 74 % 1026 hPa 0,0 l/m 0,0 km/h (0 Bft) O 6,6 C 11,1 C
07.07.2023 06:00 10,9 C 75 % 1026 hPa 0,0 l/m 0,0 km/h (0 Bft) O 6,7 C 10,9 C
07.07.2023 07:00 11,8 C 77 % 1027 hPa 0,0 l/m 0,0 km/h (0 Bft) O 7,9 C 11,8 C
07.07.2023 08:00 14,6 C 75 % 1027 hPa 0,0 l/m 0,0 km/h (0 Bft) O 10,2 C 14,6 C
07.07.2023 09:00 18,0 C 68 % 1027 hPa 0,0 l/m 0,0 km/h (0 Bft) S-SO 12,0 C 18,0 C
07.07.2023 10:00 21,1 C 59 % 1027 hPa 0,0 l/m 0,0 km/h (0 Bft) SO 12,7 C 21,1 C
07.07.2023 11:00 24,3 C 49 % 1027 hPa 0,0 l/m 0,1 km/h (0 Bft) O-SO 12,8 C 24,3 C
07.07.2023 12:00 26,7 C 41 % 1027 hPa 0,0 l/m 0,0 km/h (0 Bft) O-SO 12,5 C 26,7 C
07.07.2023 13:00 28,2 C 38 % 1026 hPa 0,0 l/m 0,0 km/h (0 Bft) SO 12,6 C 28,2 C
07.07.2023 14:00 29,0 C 36 % 1026 hPa 0,0 l/m 0,0 km/h (0 Bft) S-SW 12,4 C 29,0 C
07.07.2023 15:00 30,1 C 34 % 1026 hPa 0,0 l/m 0,5 km/h (0 Bft) N 12,5 C 30,1 C
07.07.2023 16:00 30,9 C 34 % 1025 hPa 0,0 l/m 0,0 km/h (0 Bft) O-NO 13,0 C 30,9 C
07.07.2023 17:00 31,2 C 33 % 1025 hPa 0,0 l/m 1,4 km/h (1 Bft) N-NO 12,9 C 31,2 C
07.07.2023 18:00 29,3 C 35 % 1025 hPa 0,0 l/m 0,8 km/h (0 Bft) O-NO 12,1 C 29,3 C
07.07.2023 19:00 27,4 C 38 % 1024 hPa 0,0 l/m 0,0 km/h (0 Bft) O-NO 11,7 C 27,4 C
07.07.2023 20:00 25,6 C 42 % 1025 hPa 0,0 l/m 0,0 km/h (0 Bft) NO 11,5 C 25,6 C
07.07.2023 21:00 23,6 C 45 % 1025 hPa 0,0 l/m 0,0 km/h (0 Bft) O 10,8 C 23,6 C
07.07.2023 22:00 22,2 C 47 % 1025 hPa 0,0 l/m 0,0 km/h (0 Bft) NO 10,3 C 22,2 C
07.07.2023 23:00 21,5 C 48 % 1025 hPa 0,0 l/m 1,3 km/h (1 Bft) O 9,9 C 21,4 C
08.07.2023 00:00 19,4 C 52 % 1025 hPa 0,0 l/m 0,0 km/h (0 Bft) O 9,2 C 19,4 C
08.07.2023 01:00 17,5 C 56 % 1025 hPa 0,0 l/m 0,0 km/h (0 Bft) O 8,7 C 17,5 C
08.07.2023 02:00 16,5 C 60 % 1025 hPa 0,0 l/m 0,0 km/h (0 Bft) O 8,6 C 16,5 C
08.07.2023 03:00 16,1 C 61 % 1025 hPa 0,0 l/m 0,0 km/h (0 Bft) O 8,5 C 16,1 C
08.07.2023 04:00 15,4 C 63 % 1024 hPa 0,0 l/m 0,0 km/h (0 Bft) O 8,2 C 15,4 C
08.07.2023 05:00 14,2 C 66 % 1025 hPa 0,0 l/m 0,0 km/h (0 Bft) O 7,8 C 14,2 C
08.07.2023 06:00 13,8 C 68 % 1025 hPa 0,0 l/m 0,0 km/h (0 Bft) O 8,1 C 13,8 C
08.07.2023 07:00 15,3 C 70 % 1025 hPa 0,0 l/m 0,0 km/h (0 Bft) O 9,9 C 15,3 C
08.07.2023 08:00 18,5 C 66 % 1025 hPa 0,0 l/m 0,0 km/h (0 Bft) SO 12,0 C 18,5 C
08.07.2023 09:00 22,0 C 58 % 1025 hPa 0,0 l/m 0,0 km/h (0 Bft) SO 13,4 C 22,0 C
08.07.2023 10:00 25,0 C 51 % 1025 hPa 0,0 l/m 0,0 km/h (0 Bft) SO 14,0 C 25,0 C
08.07.2023 11:00 28,2 C 44 % 1025 hPa 0,0 l/m 0,0 km/h (0 Bft) S-SO 14,6 C 28,2 C
08.07.2023 12:00 30,4 C 37 % 1025 hPa 0,0 l/m 1,7 km/h (1 Bft) SO 13,8 C 30,4 C
08.07.2023 13:00 31,8 C 35 % 1025 hPa 0,0 l/m 1,8 km/h (1 Bft) O-SO 14,4 C 31,7 C
08.07.2023 14:00 32,2 C 34 % 1024 hPa 0,0 l/m 3,4 km/h (1 Bft) SO 14,1 C 32,1 C
08.07.2023 15:00 33,2 C 32 % 1024 hPa 0,0 l/m 0,0 km/h (0 Bft) N-NO 14,2 C 33,2 C
08.07.2023 16:00 34,2 C 31 % 1024 hPa 0,0 l/m 0,0 km/h (0 Bft) O-SO 14,6 C 34,2 C
08.07.2023 17:00 33,9 C 30 % 1024 hPa 0,0 l/m 1,1 km/h (0 Bft) N-NO 14,0 C 33,9 C
08.07.2023 18:00 31,9 C 32 % 1024 hPa 0,0 l/m 0,2 km/h (0 Bft) O-NO 13,1 C 31,9 C
08.07.2023 19:00 29,9 C 34 % 1024 hPa 0,0 l/m 0,0 km/h (0 Bft) NO 12,5 C 29,9 C
08.07.2023 20:00 28,2 C 37 % 1024 hPa 0,0 l/m 0,0 km/h (0 Bft) SO 12,2 C 28,2 C
08.07.2023 21:00 26,0 C 41 % 1024 hPa 0,0 l/m 0,0 km/h (0 Bft) O 11,6 C 26,0 C
08.07.2023 22:00 24,4 C 43 % 1024 hPa 0,0 l/m 0,0 km/h (0 Bft) O 11,1 C 24,4 C
08.07.2023 23:00 23,4 C 46 % 1025 hPa 0,0 l/m 0,0 km/h (0 Bft) O-NO 11,1 C 23,4 C
09.07.2023 00:00 21,9 C 49 % 1025 hPa 0,0 l/m 0,0 km/h (0 Bft) O-NO 10,8 C 21,9 C
09.07.2023 01:00 20,4 C 53 % 1025 hPa 0,0 l/m 0,0 km/h (0 Bft) O-NO 10,4 C 20,4 C
09.07.2023 02:00 19,2 C 55 % 1025 hPa 0,0 l/m 0,0 km/h (0 Bft) O-NO 10,1 C 19,2 C
09.07.2023 03:00 18,3 C 59 % 1025 hPa 0,0 l/m 0,0 km/h (0 Bft) O-NO 10,0 C 18,3 C
09.07.2023 04:00 18,0 C 61 % 1025 hPa 0,0 l/m 0,0 km/h (0 Bft) O-NO 10,3 C 18,0 C
09.07.2023 05:00 17,4 C 63 % 1025 hPa 0,0 l/m 0,0 km/h (0 Bft) O-NO 10,3 C 17,4 C
09.07.2023 06:00 17,6 C 65 % 1025 hPa 0,0 l/m 0,0 km/h (0 Bft) O 10,9 C 17,6 C
09.07.2023 07:00 18,6 C 65 % 1026 hPa 0,0 l/m 0,0 km/h (0 Bft) O 12,0 C 18,6 C
09.07.2023 08:00 21,1 C 62 % 1026 hPa 0,0 l/m 0,0 km/h (0 Bft) SO 13,6 C 21,1 C
09.07.2023 09:00 23,9 C 58 % 1026 hPa 0,0 l/m 0,0 km/h (0 Bft) SO 15,1 C 23,9 C
09.07.2023 10:00 27,0 C 52 % 1026 hPa 0,0 l/m 0,0 km/h (0 Bft) O-SO 16,1 C 27,0 C
09.07.2023 11:00 30,8 C 43 % 1025 hPa 0,0 l/m 0,0 km/h (0 Bft) O-SO 16,8 C 30,8 C
09.07.2023 12:00 32,3 C 39 % 1025 hPa 0,0 l/m 2,8 km/h (1 Bft) N-NO 16,4 C 32,3 C
09.07.2023 13:00 33,9 C 35 % 1025 hPa 0,0 l/m 0,0 km/h (0 Bft) O-NO 16,3 C 33,9 C
09.07.2023 14:00 35,1 C 34 % 1025 hPa 0,0 l/m 3,2 km/h (1 Bft) O-SO 16,7 C 35,1 C
09.07.2023 15:00 36,0 C 32 % 1024 hPa 0,0 l/m 0,0 km/h (0 Bft) O-SO 16,5 C 36,0 C
09.07.2023 16:00 36,3 C 31 % 1024 hPa 0,0 l/m 0,2 km/h (0 Bft) N 16,3 C 36,3 C
09.07.2023 17:00 35,8 C 31 % 1023 hPa 0,0 l/m 0,2 km/h (0 Bft) N-NO 15,9 C 35,8 C
09.07.2023 18:00 34,0 C 32 % 1023 hPa 0,0 l/m 0,0 km/h (0 Bft) O-SO 15,0 C 34,0 C
09.07.2023 19:00 31,9 C 35 % 1023 hPa 0,0 l/m 0,0 km/h (0 Bft) O 14,5 C 31,9 C
09.07.2023 20:00 30,0 C 38 % 1023 hPa 0,0 l/m 0,0 km/h (0 Bft) O-NO 13,9 C 30,0 C
09.07.2023 21:00 27,9 C 40 % 1023 hPa 0,0 l/m 0,0 km/h (0 Bft) O-NO 13,1 C 27,9 C
09.07.2023 22:00 26,7 C 42 % 1023 hPa 0,0 l/m 0,0 km/h (0 Bft) O-NO 12,8 C 26,7 C
09.07.2023 23:00 25,9 C 44 % 1023 hPa 0,0 l/m 0,0 km/h (0 Bft) O-NO 12,6 C 25,9 C
Min-Datum _ 07.07.23 09.07.23 05.07.23 - 09.07.23 - 06.07.23 07.07.23
_ Min-Zeit 06:02 17:02 10:02 - 23:02 - 04:22 06:02
Minimum _ 10,9 C 30 % 1015 hPa - 0,0 km/h (0 Bft) - 5,9 C 10,9 C
Max-Datum _ 09.07.23 04.07.23 07.07.23 09.07.23 05.07.23 - 09.07.23 09.07.23
_ Max-Zeit 16:12 07:02 12:02 23:02 08:32 - 11:22 16:12
Maximum _ 36,6 C 79 % 1027 hPa 0,0 l/m 19,1 km/h
SO (3 Bft)
- 17,6 C 36,6 C
Durchschnitt _ 21,0 C 53 % 1021 hPa #0,0 l/m 0,3 km/h (0 Bft) O 10,6 C 21,0 C